Enders, NE (69027)

8:50 PM MST on December 26, 2014 (GMT -0700)
Imperial Municipal | Change Station
CLOSE
Current Station
Airport
Location: Imperial,
Elevation: 3274 ft
Nearby Weather Stations
Active Advisory: Winter Weather Advisory Active Notice: Public Information Statement

Elev 3274 ft 40.51 °N, 101.62 °W | Updated 57 minutes ago

Overcast
Overcast
19 °F
Feels Like 9 °F
N
8
Wind Variable Wind from North

Today
High -- | Low -- °F
--% Chance of Precip.
Yesterday
High -- | Low -- °F
Precip. -- in
7:08 AM 4:25 PM
Waxing Crescent, 32% visible
Pressure 30.24 in
Visibility 4.0 miles
Clouds Few 1800 ft
Few 2300 ft
Overcast 3600 ft
Windchill 9 °F
Dew Point 15 °F
Humidity 85%
Rainfall 0.02 in
Snow Depth Not available.
UV 0 out of 12
Pollen .10 out of 12
Air Quality Not available.
Flu Activity Not available.
METAR KIML 270253Z AUTO 35007KT 4SM -SN BR FEW018 FEW023 OVC036 M07/M09 A3011 RMK AO2 SLP239 P0000 60000 T10721094 53015

More Conditions Fewer Conditions

Pressure 30.24 in
Visibility 4.0 miles
Clouds Few 1800 ft
Few 2300 ft
Overcast 3600 ft
Windchill 9 °F
Dew Point 15 °F
Humidity 85%
Rainfall 0.02 in
Snow Depth Not available.
UV 0 out of 12
Pollen .10 out of 12
Air Quality Not available.
Flu Activity Not available.
METAR KIML 270253Z AUTO 35007KT 4SM -SN BR FEW018 FEW023 OVC036 M07/M09 A3011 RMK AO2 SLP239 P0000 60000 T10721094 53015

More Conditions Fewer Conditions

10-Day Weather Forecast

Almanac

Astronomy

Dec. 26, 2014 Rise Set
Actual Time
Civil Twilight
Nautical Twilight
Astronomical Twilight
Moon
Length of Visible Light
Length of Day
Tomorrow will be .
, % of the Moon is Illuminated

Today's Extremes

State Highs State Lows

Community

WunderPhotos

Upload Photos

1,780,836 photos uploaded!

WunderBlogs® & News

Nearby

Air Quality

  Air Quality AQ Index Pollutant
Not available.

Snow Depth

Station Depth Elevation

Earthquake Activity

City Distance Mag. Time & Date
Minimum magnitude displayed is 2.5.

Coastal Water Temperatures

Place Temperature

Nearby Weather Stations